Observations à ENGHIEN-REBECQ avril 2004
Date RR Tx Tn Tm T6 PP U DD FF O C/L
1/04/2004 0,0 21,7 9,6 15,7 10,0 1006 78 so 5 5 sec
2/04/2004 0,0 15,8 10,4 13,1 13,5 1004 85 so 8 7 sec
3/04/2004 1,0 15,9 9,3 12,6 10,1 1011 91 SO 15 8 hum
4/04/2004 5,0 10,5 6,8 8,7 10,7 1009 81 so 32 7 hum
5/04/2004 9,0 9,7 4,0 6,9 5,5 1002 87 SO 10 8 hum
6/04/2004 5,0 9,9 3,0 6,5 3,3 1004 98 so 22 8 pluie
7/04/2004 1,0 11,7 1,7 6,7 2,1 1013 97 so 0 8 sec
8/04/2004 0,0 9,7 3,4 6,6 4,6 1015 95 NE 5 8 SEC
9/04/2004 0,0 10,4 4,0 7,2 3,7 1014 92 O 0 1 GEL
10/04/2004 0,0 9,2 0,4 4,8 0,4 1012 58 O 0 0 gel
11/04/2004 0,0 10,7 3,9 7,3 4,4 1019 69 0 0 0 gel
12/04/2004 0,0 15,0 1,6 8,3 2,2 1025 90 NE 0 0 GEL
13/04/2004 0,0 12,6 3,6 8,1 4,4 1023 96 N 0 1 SEC
14/04/2004 0,0 16,6 1,5 9,1 3,7 1022 94 O 0 2 SEC
15/04/2004 0,0 20,2 5,2 12,7 7,1 1016 68 E 0 2 SEC
16/04/2004 0,0 22,0 6,4 14,2 6,4 1007 98 ne 0 1 SEC
17/04/2004 0,0 19,6 8,1 13,9 11,1 1002 54 SO 0 0 SEC
18/04/2004 2,0 10,7 5,1 7,9 6,0 990 79 SUD 5 8 SEC
19/04/2004 0,0 14,1 4,8 9,5 5,7 986 77 so 8 7 SEC
20/04/2004 0,0 15,5 2,6 9,1 2,7 997 93 S 0 0 SEC
21/04/2004 0,0 19,4 8,4 13,9 9,9 1009 92 SE 0 0 SEC
22/04/2004 4,0 17,6 11,6 14,6 12,0 1011 97 SO 0 8 HUM
23/04/2004 0,0 18,7 5,5 12,1 6,1 1021 88 N 0 8 SEC
24/04/2004 0,0 15,1 4,2 9,7 4,8 1027 95 NO 0 1 SEC
25/04/2004 0,0 19,4 4,7 12,1 4,2 1020 94 NE 8 1 SEC
26/04/2004 0,0 21,5 8,4 15,0 9,0 1019 91 NE 8 1 SEC
27/04/2004 0,0 22,0 9,4 15,7 9,2 1010 73 NE 6 1 SEC
28/04/2004 0,0 20,7 11,3 16,0 11,7 1003 71 SO 0 8 SEC
29/04/2004 0,0 16,9 11,4 14,2 11,5 998 93 SO 4 8 HUM
30/04/2004 1,0 21,9 11,1 16,5 11,3 995 88 O 0 8 SEC
1/05/2004 0,0 18,6 10,7 14,7 10,8 1000 97 O 0 5 SEC
Moyenne/Totaux 28,0 15,9 6,2 11,1 7,0 1009,4 85,8        
RR = précipitations   RR = précipitations    
Tx = Températures maximales   Tx = Températures maximales
Tn = Températures minimales   Tn = Températures minimales
T6 = Températures à 6 heures   T6 = Températures à 6 heures
PP = pression atmosphériques réduites au niveau de la mer  PP = pression atmosphériques réduites au niveau de la mer